Time;durP1;ratioP1;P1;durP2;ratioP2;P2;SDS_P1;SDS_P2;PMS_P1;PMS_P2;Temp;Humidity;BMP_temperature;BMP_pressure;BME280_temperature;BME280_humidity;BME280_pressure;Samples;Min_cycle;Max_cycle;Signal;HPM_P1;HPM_P2
2021/09/13 00:01:25;;;;;;;21.70;15.57;;;14.40;99.90;;;;;;5088415;28;20215;-54
2021/09/13 00:03:58;;;;;;;21.63;14.77;;;14.30;99.90;;;;;;5087951;28;20221;-57
2021/09/13 00:06:35;;;;;;;23.97;15.77;;;14.30;99.90;;;;;;5087858;28;20212;-53
2021/09/13 00:09:10;;;;;;;24.83;15.77;;;14.20;99.90;;;;;;5087877;28;20254;-59
2021/09/13 00:11:42;;;;;;;18.90;14.57;;;14.20;99.90;;;;;;5088324;28;20226;-58
2021/09/13 00:14:19;;;;;;;22.23;16.43;;;14.10;99.90;;;;;;5087906;28;20235;-55
2021/09/13 00:16:57;;;;;;;22.77;15.70;;;14.10;99.90;;;;;;5077665;28;20204;-59
2021/09/13 00:19:29;;;;;;;21.77;15.57;;;14.10;99.90;;;;;;5073954;28;20215;-57
2021/09/13 00:22:21;;;;;;;20.37;13.93;;;14.10;99.90;;;;;;5074529;28;20211;-57
2021/09/13 00:25:04;;;;;;;20.53;14.73;;;14.00;1.00;;;;;;5073982;28;20265;-57
2021/09/13 00:27:35;;;;;;;22.37;15.03;;;14.10;1.00;;;;;;5074735;28;20295;-56
2021/09/13 00:30:08;;;;;;;19.03;13.93;;;14.00;1.00;;;;;;5074309;28;20240;-57
2021/09/13 00:32:50;;;;;;;17.40;14.20;;;14.00;1.00;;;;;;5074352;28;20208;-55
2021/09/13 00:35:28;;;;;;;19.63;14.20;;;14.00;99.90;;;;;;5073822;28;20225;-55
2021/09/13 00:38:02;;;;;;;18.83;14.20;;;14.00;99.90;;;;;;5074166;28;20580;-56
2021/09/13 00:40:42;;;;;;;20.97;14.17;;;13.90;99.90;;;;;;5074074;28;20209;-56
2021/09/13 00:43:26;;;;;;;20.83;14.60;;;13.90;99.90;;;;;;5074236;28;20221;-55
2021/09/13 00:46:12;;;;;;;20.43;14.03;;;13.80;99.90;;;;;;5073689;28;20216;-57
2021/09/13 00:48:48;;;;;;;20.07;14.00;;;13.80;99.90;;;;;;5073487;28;20661;-58
2021/09/13 00:51:21;;;;;;;19.40;13.47;;;13.80;99.90;;;;;;5070773;28;20754;-56
2021/09/13 00:54:03;;;;;;;18.83;14.03;;;13.70;99.90;;;;;;5073464;28;20725;-59
2021/09/13 00:56:31;;;;;;;20.77;13.40;;;13.70;99.90;;;;;;5072495;28;20549;-59
2021/09/13 00:59:06;;;;;;;18.47;12.70;;;13.70;99.90;;;;;;5073446;28;20205;-58
2021/09/13 01:01:37;;;;;;;24.70;13.77;;;13.70;99.90;;;;;;5073499;28;20697;-60
2021/09/13 01:04:15;;;;;;;15.23;12.50;;;13.60;99.90;;;;;;5073219;28;20248;-60
2021/09/13 01:06:46;;;;;;;17.67;11.93;;;13.60;99.90;;;;;;5073098;28;20679;-55
2021/09/13 01:09:26;;;;;;;17.70;13.03;;;13.50;99.90;;;;;;5073456;28;20673;-55
2021/09/13 01:12:06;;;;;;;15.60;11.47;;;13.50;99.90;;;;;;5073200;28;20550;-57
2021/09/13 01:14:58;;;;;;;15.97;12.07;;;13.50;99.90;;;;;;5073289;28;20307;-56
2021/09/13 01:17:33;;;;;;;16.50;11.40;;;13.50;99.90;;;;;;5072371;28;20572;-56
2021/09/13 01:20:14;;;;;;;16.93;11.80;;;13.40;99.90;;;;;;5072963;28;20200;-57
2021/09/13 01:22:55;;;;;;;16.27;10.67;;;13.40;99.90;;;;;;5072248;28;20681;-56
2021/09/13 01:25:32;;;;;;;17.73;11.60;;;13.30;99.90;;;;;;5072906;28;20221;-55
2021/09/13 01:28:04;;;;;;;14.77;10.87;;;13.30;99.90;;;;;;5072323;28;20201;-58
2021/09/13 01:30:36;;;;;;;15.23;10.40;;;13.30;99.90;;;;;;5073526;28;20212;-54
2021/09/13 01:36:04;;;;;;;18.83;11.40;;;13.30;99.90;;;;;;5070275;28;20186;-57
2021/09/13 01:38:54;;;;;;;17.97;11.80;;;13.30;1.00;;;;;;5072599;28;20205;-57
2021/09/13 01:41:30;;;;;;;15.53;10.50;;;13.20;1.00;;;;;;5073114;28;20670;-59
2021/09/13 01:44:08;;;;;;;14.43;10.00;;;13.20;1.00;;;;;;5072662;28;20747;-55
2021/09/13 01:46:47;;;;;;;14.10;10.10;;;13.20;1.00;;;;;;5072714;28;20217;-53
2021/09/13 01:49:21;;;;;;;12.20;10.03;;;13.20;1.00;;;;;;5072703;28;20562;-58
2021/09/13 01:51:51;;;;;;;15.90;9.90;;;13.20;1.00;;;;;;5072518;28;20212;-57
2021/09/13 01:54:30;;;;;;;14.20;9.13;;;13.10;1.00;;;;;;5072429;28;20231;-55
2021/09/13 01:57:04;;;;;;;12.93;9.07;;;13.20;1.00;;;;;;5072389;28;20288;-60
2021/09/13 01:59:35;;;;;;;10.60;9.23;;;13.10;1.00;;;;;;5072571;28;20664;-58
2021/09/13 02:02:06;;;;;;;13.77;9.00;;;13.10;1.00;;;;;;5072596;28;20212;-58
2021/09/13 02:04:49;;;;;;;16.93;9.60;;;13.10;1.00;;;;;;5072160;28;20239;-56
2021/09/13 02:07:29;;;;;;;14.00;9.27;;;13.00;1.00;;;;;;5072530;28;20215;-57
2021/09/13 02:09:59;;;;;;;13.20;8.67;;;13.00;1.00;;;;;;5072378;28;20579;-57
2021/09/13 02:12:47;;;;;;;12.40;9.27;;;13.00;1.00;;;;;;5072316;28;20263;-58
2021/09/13 02:15:26;;;;;;;15.20;9.10;;;13.00;1.00;;;;;;5072206;28;20308;-58
2021/09/13 02:17:57;;;;;;;11.67;8.10;;;13.00;1.00;;;;;;5072662;28;20557;-60
2021/09/13 02:20:31;;;;;;;12.47;8.50;;;13.00;1.00;;;;;;5071992;28;20588;-56
2021/09/13 02:23:02;;;;;;;11.73;8.20;;;12.90;1.00;;;;;;5071736;28;20621;-55
2021/09/13 02:25:39;;;;;;;13.60;9.13;;;12.90;1.00;;;;;;5071837;28;20232;-58
2021/09/13 02:28:26;;;;;;;17.87;9.77;;;12.90;1.00;;;;;;5072153;28;20208;-58
2021/09/13 02:31:17;;;;;;;14.17;9.90;;;12.90;1.00;;;;;;5071803;28;20289;-51
2021/09/13 02:33:50;;;;;;;13.10;9.50;;;12.80;1.00;;;;;;5072129;28;20204;-54
2021/09/13 02:36:31;;;;;;;12.53;9.37;;;12.80;1.00;;;;;;5072048;28;20261;-59
2021/09/13 02:39:11;;;;;;;;;;;;;;;;;;;;;
2021/09/13 02:41:41;;;;;;;13.63;8.63;;;12.80;1.00;;;;;;5071865;28;20209;-55
2021/09/13 02:44:14;;;;;;;13.30;9.30;;;12.80;1.00;;;;;;5071797;28;20732;-55
2021/09/13 02:47:02;;;;;;;12.67;8.57;;;12.80;1.00;;;;;;5071475;28;20700;-58
2021/09/13 02:49:37;;;;;;;17.27;9.63;;;12.80;1.00;;;;;;5071850;28;20680;-54
2021/09/13 02:52:18;;;;;;;14.33;9.43;;;12.80;1.00;;;;;;5071863;28;20694;-57
2021/09/13 02:54:51;;;;;;;14.33;9.50;;;12.80;1.00;;;;;;5071648;28;20232;-56
2021/09/13 02:57:19;;;;;;;16.17;9.73;;;12.70;1.00;;;;;;5071834;28;20266;-57
2021/09/13 03:00:02;;;;;;;15.30;9.07;;;12.70;1.00;;;;;;5072469;28;20205;-57
2021/09/13 03:02:43;;;;;;;16.83;9.27;;;12.60;1.00;;;;;;5071582;28;20230;-59
2021/09/13 03:05:18;;;;;;;17.20;10.63;;;12.70;1.00;;;;;;5070226;28;20235;-59
2021/09/13 03:08:18;;;;;;;14.40;10.03;;;12.60;1.00;;;;;;5071278;28;20210;-57
2021/09/13 03:11:00;;;;;;;16.40;10.80;;;12.60;1.00;;;;;;5071959;28;20664;-59
2021/09/13 03:13:38;;;;;;;15.23;10.73;;;12.60;1.00;;;;;;5071660;28;20204;-59
2021/09/13 03:16:12;;;;;;;15.03;10.23;;;12.60;1.00;;;;;;5071885;28;20668;-57
2021/09/13 03:18:49;;;;;;;17.43;10.70;;;12.60;1.00;;;;;;5071450;28;20205;-58
2021/09/13 03:21:23;;;;;;;16.30;10.67;;;12.60;1.00;;;;;;5071546;28;20664;-57
2021/09/13 03:23:54;;;;;;;17.60;11.23;;;12.60;1.00;;;;;;5071304;28;20834;-57
2021/09/13 03:26:24;;;;;;;14.50;10.43;;;12.50;1.00;;;;;;5071458;28;20760;-56
2021/09/13 03:29:08;;;;;;;17.30;11.43;;;12.50;1.00;;;;;;5071525;28;20208;-58
2021/09/13 03:31:42;;;;;;;14.47;10.27;;;12.50;1.00;;;;;;5071538;28;20761;-56
2021/09/13 03:34:18;;;;;;;16.93;10.47;;;12.50;1.00;;;;;;5071301;28;20704;-58
2021/09/13 03:37:20;;;;;;;16.60;10.67;;;12.50;1.00;;;;;;5070621;28;20243;-58
2021/09/13 03:39:52;;;;;;;16.27;11.10;;;12.40;1.00;;;;;;5071504;28;20208;-58
2021/09/13 03:42:26;;;;;;;15.53;10.50;;;12.40;1.00;;;;;;5071713;28;20660;-57
2021/09/13 03:45:00;;;;;;;16.70;10.90;;;12.40;1.00;;;;;;5071301;28;20236;-54
2021/09/13 03:47:40;;;;;;;17.70;11.17;;;12.40;1.00;;;;;;5071532;28;20211;-57
2021/09/13 03:50:25;;;;;;;19.73;11.57;;;12.40;1.00;;;;;;5071611;28;20672;-57
2021/09/13 03:52:56;;;;;;;14.73;11.23;;;12.30;1.00;;;;;;5075461;28;20560;-59
2021/09/13 03:55:38;;;;;;;18.27;11.87;;;12.30;1.00;;;;;;5074827;28;20708;-57
2021/09/13 03:58:22;;;;;;;16.77;11.97;;;12.30;1.00;;;;;;5075455;28;20699;-57
2021/09/13 04:00:54;;;;;;;15.93;10.93;;;12.30;1.00;;;;;;5075272;28;20205;-58
2021/09/13 04:03:45;;;;;;;18.27;11.23;;;12.30;1.00;;;;;;5075455;28;20231;-57
2021/09/13 04:06:25;;;;;;;18.87;11.50;;;12.30;1.00;;;;;;5074770;28;20227;-58
2021/09/13 04:09:39;;;;;;;16.93;12.80;;;12.30;1.00;;;;;;5055015;28;20629;-58
2021/09/13 04:11:57;;;;;;;23.93;11.77;;;12.30;1.00;;;;;;5054806;28;20205;-57
2021/09/13 04:15:04;;;;;;;20.80;12.23;;;12.30;1.00;;;;;;5054392;28;20705;-56
2021/09/13 04:17:39;;;;;;;18.53;11.77;;;12.30;1.00;;;;;;5054560;28;20578;-53
2021/09/13 04:20:15;;;;;;;19.00;12.20;;;12.20;1.00;;;;;;5060682;28;20607;-55
2021/09/13 04:23:13;;;;;;;20.97;12.40;;;12.20;1.00;;;;;;5074140;28;20216;-53
2021/09/13 04:25:48;;;;;;;20.10;12.47;;;12.20;1.00;;;;;;5074313;28;20637;-59
2021/09/13 04:28:15;;;;;;;19.73;12.77;;;12.20;1.00;;;;;;5074568;28;20299;-59
2021/09/13 04:30:41;;;;;;;18.13;13.03;;;12.20;1.00;;;;;;5074494;28;20260;-58
2021/09/13 04:33:08;;;;;;;25.93;14.13;;;12.20;1.00;;;;;;5074082;28;20262;-60
2021/09/13 04:35:36;;;;;;;19.33;13.50;;;12.20;1.00;;;;;;5074369;28;20281;-59
2021/09/13 04:38:02;;;;;;;18.57;13.43;;;12.20;1.00;;;;;;5073887;28;20265;-59
2021/09/13 04:40:29;;;;;;;19.97;13.33;;;12.20;1.00;;;;;;5074215;28;20613;-59
2021/09/13 04:42:56;;;;;;;23.10;14.30;;;12.10;1.00;;;;;;5074126;28;20211;-59
2021/09/13 04:45:22;;;;;;;19.27;13.20;;;12.10;1.00;;;;;;5073742;28;20232;-59
2021/09/13 04:47:49;;;;;;;17.77;13.80;;;12.10;1.00;;;;;;5073746;28;20274;-59
2021/09/13 04:50:16;;;;;;;18.77;12.53;;;12.10;1.00;;;;;;5074188;28;20620;-58
2021/09/13 04:52:44;;;;;;;19.70;13.77;;;12.10;1.00;;;;;;5074215;28;20610;-58
2021/09/13 04:55:10;;;;;;;19.53;13.10;;;12.10;1.00;;;;;;5074181;28;20293;-58
2021/09/13 04:57:37;;;;;;;21.97;13.77;;;12.10;1.00;;;;;;5073970;28;20249;-58
2021/09/13 05:00:05;;;;;;;21.00;14.27;;;12.00;1.00;;;;;;5073710;28;20263;-58
2021/09/13 05:02:31;;;;;;;23.70;15.87;;;12.00;1.00;;;;;;5073873;28;20215;-59
2021/09/13 05:04:58;;;;;;;24.60;14.73;;;12.00;1.00;;;;;;5073394;28;20748;-57
2021/09/13 05:07:25;;;;;;;26.67;17.07;;;12.00;1.00;;;;;;5073760;28;20282;-58
2021/09/13 05:09:53;;;;;;;25.00;15.63;;;12.00;1.00;;;;;;5073551;28;20237;-58
2021/09/13 05:12:19;;;;;;;28.50;18.23;;;12.00;1.00;;;;;;5090619;28;20284;-59
2021/09/13 05:14:46;;;;;;;26.73;15.90;;;12.00;1.00;;;;;;5093493;28;20300;-59
2021/09/13 05:17:13;;;;;;;23.03;15.50;;;12.00;1.00;;;;;;5093899;28;20208;-59
2021/09/13 05:19:39;;;;;;;24.13;15.43;;;12.00;1.00;;;;;;5093962;28;20207;-59
2021/09/13 05:22:06;;;;;;;23.87;15.43;;;12.00;1.00;;;;;;5077101;28;20282;-59
2021/09/13 05:24:33;;;;;;;20.37;14.10;;;12.00;1.00;;;;;;5071185;28;20231;-62
2021/09/13 05:27:01;;;;;;;23.23;14.43;;;12.00;1.00;;;;;;5068883;28;20246;-58
2021/09/13 05:29:27;;;;;;;25.53;15.30;;;12.00;1.00;;;;;;5072587;28;20606;-59
2021/09/13 05:31:54;;;;;;;20.50;14.80;;;12.00;1.00;;;;;;5073123;28;20337;-58
2021/09/13 05:34:21;;;;;;;24.27;15.47;;;12.10;1.00;;;;;;5072763;28;20293;-58
2021/09/13 05:36:48;;;;;;;25.30;15.03;;;12.10;1.00;;;;;;5072433;28;20219;-58
2021/09/13 05:39:14;;;;;;;20.90;15.37;;;12.20;1.00;;;;;;5072852;28;20207;-58
2021/09/13 05:41:41;;;;;;;22.93;14.50;;;12.20;1.00;;;;;;5072484;28;20205;-58
2021/09/13 05:44:09;;;;;;;21.03;13.97;;;12.20;1.00;;;;;;5072465;28;20225;-58
2021/09/13 05:46:35;;;;;;;22.60;14.87;;;12.20;1.00;;;;;;5072255;28;20287;-58
2021/09/13 05:49:02;;;;;;;26.37;15.53;;;12.20;12.10;;;;;;5072834;28;20234;-58
2021/09/13 05:51:29;;;;;;;20.77;14.97;;;12.20;26.80;;;;;;5072675;28;20263;-58
2021/09/13 05:53:55;;;;;;;18.83;13.47;;;12.20;39.20;;;;;;5072221;28;20246;-58
2021/09/13 05:56:22;;;;;;;19.57;13.83;;;12.20;42.60;;;;;;5071940;28;20204;-58
2021/09/13 05:58:49;;;;;;;21.13;14.03;;;12.20;41.30;;;;;;5072419;28;20207;-57
2021/09/13 06:01:17;;;;;;;20.67;14.63;;;12.20;51.10;;;;;;5072092;28;20729;-56
2021/09/13 06:03:43;;;;;;;24.57;14.53;;;12.20;60.90;;;;;;5071935;28;20209;-58
2021/09/13 06:06:10;;;;;;;23.27;14.97;;;12.30;65.20;;;;;;5071917;28;20235;-61
2021/09/13 06:08:37;;;;;;;23.40;14.50;;;12.30;64.80;;;;;;5072049;28;20211;-56
2021/09/13 06:11:04;;;;;;;25.70;15.10;;;12.40;78.00;;;;;;5071961;28;20212;-58
2021/09/13 06:13:31;;;;;;;33.50;19.33;;;12.50;91.60;;;;;;5071536;28;20226;-59
2021/09/13 06:15:57;;;;;;;30.90;18.67;;;12.50;99.90;;;;;;5071874;28;20243;-58
2021/09/13 06:18:25;;;;;;;33.10;20.13;;;12.70;99.90;;;;;;5072395;28;20201;-59
2021/09/13 06:20:52;;;;;;;28.27;19.53;;;12.80;99.90;;;;;;5072062;28;20251;-60
2021/09/13 06:23:19;;;;;;;30.20;20.23;;;12.90;99.90;;;;;;5071920;28;20220;-60
2021/09/13 06:25:45;;;;;;;27.83;18.93;;;13.00;99.90;;;;;;5071222;28;20298;-60
2021/09/13 06:28:12;;;;;;;32.27;19.73;;;13.10;99.90;;;;;;5071644;28;20224;-60
2021/09/13 06:30:39;;;;;;;27.17;18.30;;;13.10;99.90;;;;;;5071989;28;20269;-61
2021/09/13 06:33:06;;;;;;;26.77;18.83;;;13.20;99.90;;;;;;5072479;28;20231;-61
2021/09/13 06:35:34;;;;;;;25.13;18.67;;;13.30;99.90;;;;;;5071371;28;20709;-61
2021/09/13 06:38:01;;;;;;;25.40;18.13;;;13.30;99.90;;;;;;5071536;28;20201;-63
2021/09/13 06:40:27;;;;;;;24.30;17.33;;;13.40;99.90;;;;;;5071975;28;20205;-61
2021/09/13 06:42:54;;;;;;;27.07;18.13;;;13.40;99.90;;;;;;5071998;28;20255;-59
2021/09/13 06:45:23;;;;;;;27.63;18.33;;;13.50;99.90;;;;;;5071651;28;20228;-61
2021/09/13 06:47:50;;;;;;;25.13;18.17;;;13.60;99.90;;;;;;5071511;28;20225;-61
2021/09/13 06:50:19;;;;;;;34.53;18.90;;;13.60;99.90;;;;;;5071938;28;20616;-62
2021/09/13 06:52:49;;;;;;;33.93;22.03;;;13.70;99.90;;;;;;5071518;28;20670;-61
2021/09/13 06:55:16;;;;;;;35.37;23.20;;;13.70;99.90;;;;;;5071578;28;20717;-60
2021/09/13 06:57:43;;;;;;;35.47;24.50;;;13.80;99.90;;;;;;5071456;28;20205;-60
2021/09/13 07:00:13;;;;;;;33.90;23.43;;;13.90;99.90;;;;;;5071443;28;20636;-59
2021/09/13 07:02:42;;;;;;;37.33;24.70;;;13.90;99.90;;;;;;5071579;28;20209;-59
2021/09/13 07:05:10;;;;;;;40.27;26.07;;;14.00;99.90;;;;;;5070908;28;20244;-59
2021/09/13 07:07:37;;;;;;;43.03;26.93;;;14.00;99.90;;;;;;5071809;28;20220;-61
2021/09/13 07:10:08;;;;;;;40.33;27.37;;;14.10;99.90;;;;;;5071769;28;20208;-59
2021/09/13 07:12:36;;;;;;;41.37;28.37;;;14.20;99.90;;;;;;5071487;28;20200;-61
2021/09/13 07:15:03;;;;;;;40.70;28.03;;;14.20;99.90;;;;;;5071079;28;20229;-60
2021/09/13 07:17:30;;;;;;;38.57;27.10;;;14.30;99.90;;;;;;5071074;28;20204;-60
2021/09/13 07:19:57;;;;;;;46.03;28.13;;;14.40;99.90;;;;;;5071137;28;20856;-60
2021/09/13 07:22:23;;;;;;;35.57;25.93;;;14.50;99.90;;;;;;5071468;28;20563;-60
2021/09/13 07:24:50;;;;;;;41.93;26.10;;;14.60;99.90;;;;;;5070790;28;20776;-59
2021/09/13 07:27:19;;;;;;;39.37;24.33;;;14.60;89.60;;;;;;5074082;28;20274;-60
2021/09/13 07:29:45;;;;;;;35.67;23.47;;;14.60;42.50;;;;;;5075304;28;20624;-60
2021/09/13 07:32:12;;;;;;;34.50;24.47;;;14.70;2.00;;;;;;5074892;28;20764;-61
2021/09/13 07:34:39;;;;;;;34.73;23.80;;;14.80;1.00;;;;;;5075079;28;20224;-60
2021/09/13 07:37:06;;;;;;;30.93;22.93;;;14.90;1.00;;;;;;5074918;28;20207;-60
2021/09/13 07:39:33;;;;;;;31.60;21.70;;;15.00;1.00;;;;;;5075408;28;20258;-58
2021/09/13 07:42:00;;;;;;;32.60;20.80;;;15.10;1.00;;;;;;5075020;28;20201;-62
2021/09/13 07:44:29;;;;;;;26.37;19.60;;;15.20;1.00;;;;;;5074986;28;20282;-61
2021/09/13 07:46:55;;;;;;;25.03;19.50;;;15.20;1.00;;;;;;5074584;28;20228;-61
2021/09/13 07:49:22;;;;;;;19.90;16.40;;;15.30;1.00;;;;;;5075983;28;20562;-63
2021/09/13 07:51:49;;;;;;;21.93;15.10;;;15.40;99.90;;;;;;5074939;28;20561;-58
2021/09/13 07:54:16;;;;;;;17.17;13.60;;;15.50;99.90;;;;;;5074639;28;20600;-57
2021/09/13 07:56:42;;;;;;;16.27;10.40;;;15.60;1.00;;;;;;5074463;28;20251;-63
2021/09/13 07:59:09;;;;;;;17.10;13.47;;;15.80;99.90;;;;;;5074900;28;20622;-66
2021/09/13 08:01:37;;;;;;;15.63;11.53;;;15.90;99.90;;;;;;5074741;28;20689;-65
2021/09/13 08:04:05;;;;;;;16.63;11.83;;;16.00;99.90;;;;;;5074208;28;20602;-66
2021/09/13 08:06:31;;;;;;;17.17;10.80;;;16.00;99.90;;;;;;5074343;28;20212;-65
2021/09/13 08:08:58;;;;;;;15.63;8.43;;;16.10;33.00;;;;;;5074342;28;20678;-65
2021/09/13 08:11:26;;;;;;;11.40;7.63;;;16.20;1.00;;;;;;5074551;28;20551;-62
2021/09/13 08:13:53;;;;;;;13.47;7.67;;;16.20;96.50;;;;;;5073885;28;20221;-64
2021/09/13 08:16:20;;;;;;;13.00;7.57;;;16.20;93.50;;;;;;5074347;28;20216;-62
2021/09/13 08:18:48;;;;;;;17.93;9.13;;;16.30;99.90;;;;;;5074223;28;20201;-60
2021/09/13 08:21:15;;;;;;;14.43;10.33;;;16.30;99.90;;;;;;5074451;28;20205;-61
2021/09/13 08:23:41;;;;;;;16.43;11.43;;;16.40;1.00;;;;;;5074131;28;20254;-64
2021/09/13 08:26:08;;;;;;;19.70;11.57;;;16.40;1.00;;;;;;5073965;28;20213;-63
2021/09/13 08:28:35;;;;;;;17.30;11.00;;;16.50;1.00;;;;;;5073883;28;20233;-62
2021/09/13 08:31:02;;;;;;;12.13;6.57;;;16.60;1.00;;;;;;5074222;28;20213;-63
2021/09/13 08:33:29;;;;;;;13.77;7.87;;;16.70;99.90;;;;;;5074031;28;20618;-65
2021/09/13 08:35:57;;;;;;;13.23;8.83;;;16.70;99.90;;;;;;5073887;28;20205;-65
2021/09/13 08:38:24;;;;;;;15.47;9.43;;;16.70;1.00;;;;;;5073685;28;20197;-64
2021/09/13 08:40:53;;;;;;;17.47;9.20;;;16.50;99.90;;;;;;5073723;28;20209;-65
2021/09/13 08:43:20;;;;;;;14.63;9.57;;;16.50;97.40;;;;;;5074026;28;20217;-65
2021/09/13 08:45:52;;;;;;;12.87;8.97;;;16.50;1.00;;;;;;5073411;28;20705;-65
2021/09/13 08:48:23;;;;;;;13.27;8.10;;;16.80;96.90;;;;;;5073754;28;20229;-64
2021/09/13 08:53:36;;;;;;;11.20;7.07;;;17.10;99.90;;;;;;5073250;28;20224;-63
2021/09/13 08:56:05;;;;;;;11.37;6.57;;;17.20;99.90;;;;;;5073550;28;20296;-63
2021/09/13 08:58:34;;;;;;;10.60;7.20;;;17.30;99.90;;;;;;5073542;28;20239;-64
2021/09/13 09:01:01;;;;;;;11.80;7.13;;;17.60;1.00;;;;;;5073719;28;20294;-62
2021/09/13 09:03:28;;;;;;;12.53;7.23;;;17.80;99.90;;;;;;5073234;28;20283;-62
2021/09/13 09:05:56;;;;;;;11.27;7.13;;;18.00;99.90;;;;;;5072953;28;20209;-62
2021/09/13 09:08:27;;;;;;;13.20;7.40;;;18.20;99.90;;;;;;5073357;28;20315;-62
2021/09/13 09:10:56;;;;;;;12.60;7.07;;;18.20;99.90;;;;;;5073665;28;20723;-62
2021/09/13 09:13:24;;;;;;;11.63;7.27;;;18.20;91.80;;;;;;5073376;28;20236;-62
2021/09/13 09:15:56;;;;;;;12.93;6.47;;;18.10;24.50;;;;;;5072852;28;20324;-63
2021/09/13 09:18:23;;;;;;;13.97;7.00;;;18.10;99.90;;;;;;5073030;28;20205;-62
2021/09/13 09:20:49;;;;;;;11.30;5.93;;;17.90;71.50;;;;;;5073330;28;20581;-63
2021/09/13 09:23:16;;;;;;;14.17;6.30;;;17.50;8.90;;;;;;5073255;28;20205;-63
2021/09/13 09:25:43;;;;;;;11.83;6.83;;;17.50;82.40;;;;;;5072707;28;20225;-63
2021/09/13 09:28:14;;;;;;;12.47;7.17;;;17.70;1.00;;;;;;5072923;28;20255;-63
2021/09/13 09:30:43;;;;;;;12.47;6.83;;;17.80;1.00;;;;;;5073076;28;20595;-63
2021/09/13 09:33:12;;;;;;;9.60;5.87;;;18.00;1.00;;;;;;5072745;28;20266;-65
2021/09/13 09:35:44;;;;;;;11.57;6.20;;;18.10;1.00;;;;;;5072697;28;20220;-65
2021/09/13 09:38:27;;;;;;;11.33;6.67;;;17.90;1.00;;;;;;5073104;28;20258;-62
2021/09/13 09:41:00;;;;;;;9.97;6.33;;;17.90;1.00;;;;;;5072413;28;20673;-63
2021/09/13 09:43:30;;;;;;;9.27;5.60;;;17.90;1.00;;;;;;5072395;28;20262;-62
2021/09/13 09:45:57;;;;;;;8.10;5.03;;;17.90;1.00;;;;;;5072429;28;20201;-63
2021/09/13 09:48:29;;;;;;;10.93;5.30;;;18.10;1.00;;;;;;5071873;28;20229;-62
2021/09/13 09:50:55;;;;;;;8.57;4.87;;;18.20;1.00;;;;;;5072637;28;20243;-62
2021/09/13 09:53:23;;;;;;;9.10;5.17;;;18.30;1.00;;;;;;5072318;28;20205;-64
2021/09/13 09:55:53;;;;;;;9.00;4.80;;;18.30;1.00;;;;;;5072063;28;20232;-65
2021/09/13 09:58:20;;;;;;;8.53;4.30;;;18.30;1.00;;;;;;5072573;28;20580;-64
2021/09/13 10:00:50;;;;;;;8.90;4.30;;;18.10;1.00;;;;;;5072670;28;20568;-66
2021/09/13 10:03:29;;;;;;;6.17;3.40;;;18.10;1.00;;;;;;5072300;28;20201;-64
2021/09/13 10:05:55;;;;;;;6.00;2.77;;;18.20;1.00;;;;;;5071952;28;20219;-65
2021/09/13 10:08:22;;;;;;;7.17;3.33;;;18.30;1.00;;;;;;5071889;28;20221;-64
2021/09/13 10:10:49;;;;;;;4.57;3.10;;;18.40;1.00;;;;;;5072482;28;20266;-65
2021/09/13 10:13:16;;;;;;;4.80;3.20;;;18.30;1.00;;;;;;5072190;28;20254;-64
2021/09/13 10:15:43;;;;;;;5.60;3.10;;;18.20;1.00;;;;;;5071854;28;20229;-64
2021/09/13 10:18:11;;;;;;;6.40;3.87;;;18.30;1.00;;;;;;5071959;28;20209;-65
2021/09/13 10:20:38;;;;;;;5.00;3.33;;;18.20;1.00;;;;;;5072130;28;20209;-64
2021/09/13 10:23:05;;;;;;;5.03;3.27;;;18.20;1.00;;;;;;5072534;28;20687;-63
2021/09/13 10:25:32;;;;;;;4.97;2.43;;;18.20;1.00;;;;;;5071479;28;20645;-67
2021/09/13 10:28:04;;;;;;;7.23;3.20;;;18.40;1.00;;;;;;5071735;28;20233;-67
2021/09/13 10:30:33;;;;;;;5.93;3.87;;;18.50;1.00;;;;;;5071833;28;20296;-66
2021/09/13 10:33:13;;;;;;;6.03;3.00;;;18.80;1.00;;;;;;5071971;28;20207;-65
2021/09/13 10:35:53;;;;;;;5.77;3.17;;;19.10;1.00;;;;;;5071715;28;20229;-64
2021/09/13 10:38:40;;;;;;;5.93;2.73;;;19.30;1.00;;;;;;5071820;28;20208;-66
2021/09/13 10:41:07;;;;;;;9.20;2.80;;;19.50;1.00;;;;;;5071682;28;20625;-66
2021/09/13 10:43:33;;;;;;;6.23;2.67;;;19.60;1.00;;;;;;5071590;28;20283;-65
2021/09/13 10:46:00;;;;;;;6.40;3.13;;;19.80;1.00;;;;;;5071108;28;20205;-65
2021/09/13 10:48:28;;;;;;;5.63;2.40;;;19.80;1.00;;;;;;5071792;28;20228;-62
2021/09/13 10:50:56;;;;;;;4.53;2.73;;;19.90;1.00;;;;;;5071807;28;20266;-62
2021/09/13 10:53:32;;;;;;;4.80;2.50;;;19.90;1.00;;;;;;5071490;28;20201;-65
2021/09/13 10:56:01;;;;;;;5.90;2.87;;;20.10;1.00;;;;;;5071444;28;20231;-64
2021/09/13 10:58:42;;;;;;;5.87;2.60;;;20.10;1.00;;;;;;5071490;28;20205;-66
2021/09/13 11:01:10;;;;;;;4.90;2.57;;;20.10;1.00;;;;;;5071998;28;20220;-65
2021/09/13 11:03:44;;;;;;;6.10;2.80;;;20.20;1.00;;;;;;5071273;28;20205;-65
2021/09/13 11:06:36;;;;;;;4.83;2.20;;;20.20;1.00;;;;;;5071371;28;20208;-65
2021/09/13 11:09:06;;;;;;;4.47;2.20;;;20.00;99.90;;;;;;5071205;28;20326;-66
2021/09/13 11:11:34;;;;;;;3.60;2.00;;;19.90;99.90;;;;;;5071717;28;20205;-65
2021/09/13 11:14:03;;;;;;;6.10;2.30;;;19.90;99.90;;;;;;5071347;28;20228;-64
2021/09/13 11:16:32;;;;;;;4.47;2.20;;;19.90;1.00;;;;;;5071470;28;20201;-63
2021/09/13 11:19:02;;;;;;;5.17;2.30;;;20.00;99.90;;;;;;5071426;28;20200;-65
2021/09/13 11:21:34;;;;;;;5.40;2.40;;;19.80;99.90;;;;;;5071238;28;20219;-62
2021/09/13 11:24:02;;;;;;;4.43;2.00;;;19.80;99.90;;;;;;5071085;28;20707;-62
2021/09/13 11:26:31;;;;;;;3.03;2.20;;;20.00;99.90;;;;;;5071159;28;20262;-62
2021/09/13 11:28:59;;;;;;;4.27;2.37;;;20.00;99.90;;;;;;5071365;28;20225;-63
2021/09/13 11:31:35;;;;;;;3.67;2.40;;;20.10;99.90;;;;;;5071242;28;20620;-62
2021/09/13 11:34:05;;;;;;;3.80;2.43;;;20.10;99.90;;;;;;5070973;28;20224;-62
2021/09/13 11:36:33;;;;;;;4.73;2.73;;;19.80;99.90;;;;;;5070802;28;20681;-62
2021/09/13 11:39:04;;;;;;;5.70;3.10;;;19.80;99.90;;;;;;5071066;28;20263;-62
2021/09/13 11:41:31;;;;;;;8.87;2.80;;;19.80;99.90;;;;;;5071070;28;20209;-62
2021/09/13 11:44:03;;;;;;;5.30;2.70;;;20.10;99.90;;;;;;5070997;28;20221;-62
2021/09/13 11:46:31;;;;;;;6.00;2.53;;;20.20;99.90;;;;;;5070550;28;20204;-62
2021/09/13 11:49:19;;;;;;;5.97;2.73;;;20.50;99.90;;;;;;5071230;28;20225;-64
2021/09/13 11:52:09;;;;;;;7.30;2.77;;;20.60;99.90;;;;;;5071088;28;20209;-64
2021/09/13 11:54:45;;;;;;;7.30;2.97;;;20.90;99.90;;;;;;5070712;28;20229;-65
2021/09/13 11:57:36;;;;;;;4.77;2.67;;;20.70;99.90;;;;;;5070987;28;20262;-62
2021/09/13 12:00:10;;;;;;;4.70;2.50;;;20.90;99.90;;;;;;5071481;28;20190;-63
2021/09/13 12:02:38;;;;;;;5.83;3.60;;;20.90;99.90;;;;;;5071082;28;20299;-63
2021/09/13 12:07:44;;;;;;;4.27;3.00;;;21.10;99.90;;;;;;1301614;26;20225;-65
2021/09/13 12:10:11;;;;;;;7.53;3.50;;;21.00;99.90;;;;;;5050870;28;20202;-64
2021/09/13 12:12:44;;;;;;;4.30;3.20;;;21.10;99.90;;;;;;5052794;28;20209;-63
2021/09/13 12:15:12;;;;;;;4.03;3.00;;;21.10;99.90;;;;;;5054285;28;20222;-63
2021/09/13 12:17:41;;;;;;;5.47;3.10;;;21.10;99.90;;;;;;5054019;28;20210;-62
2021/09/13 12:20:14;;;;;;;4.23;2.80;;;21.20;99.90;;;;;;5054741;28;20209;-62
2021/09/13 12:22:43;;;;;;;6.33;2.90;;;21.30;99.90;;;;;;5054551;28;20213;-63
2021/09/13 12:27:47;;;;;;;5.07;3.30;;;21.20;99.90;;;;;;3180926;26;20214;-63
2021/09/13 12:30:21;;;;;;;8.60;5.30;;;21.20;99.90;;;;;;5034058;28;20206;-63
2021/09/13 12:32:57;;;;;;;7.67;4.57;;;21.10;99.90;;;;;;5034419;28;20640;-65
2021/09/13 12:35:38;;;;;;;9.50;3.97;;;21.00;99.90;;;;;;5034038;28;20229;-65
2021/09/13 12:38:09;;;;;;;4.53;3.57;;;20.90;99.90;;;;;;5041431;28;20610;-66
2021/09/13 12:40:48;;;;;;;6.10;3.80;;;21.00;99.90;;;;;;5033863;28;20674;-66
2021/09/13 12:43:17;;;;;;;6.33;3.43;;;21.00;99.90;;;;;;5034405;28;20543;-66
2021/09/13 12:45:44;;;;;;;6.47;4.13;;;21.20;99.90;;;;;;5047483;28;20225;-66
2021/09/13 12:48:11;;;;;;;5.90;3.80;;;20.90;99.90;;;;;;5054689;28;20202;-64
2021/09/13 12:50:40;;;;;;;9.10;3.50;;;20.80;99.90;;;;;;5055274;28;20206;-66
2021/09/13 12:53:15;;;;;;;8.13;3.87;;;20.70;99.90;;;;;;5054398;28;20283;-65
2021/09/13 12:55:42;;;;;;;9.63;4.53;;;21.00;99.90;;;;;;5202608;22;20286;-68
2021/09/13 12:58:30;;;;;;;7.13;4.23;;;21.00;99.90;;;;;;5053637;28;20256;-64
2021/09/13 13:00:58;;;;;;;7.83;4.23;;;21.10;99.90;;;;;;5054168;28;20677;-65
2021/09/13 13:03:25;;;;;;;6.83;3.97;;;21.00;99.90;;;;;;5053848;28;20244;-63
2021/09/13 13:05:53;;;;;;;7.20;3.50;;;21.10;99.90;;;;;;5073326;28;20321;-62
2021/09/13 13:08:22;;;;;;;6.70;4.23;;;21.20;99.90;;;;;;5073629;28;20204;-63
2021/09/13 13:10:49;;;;;;;12.07;4.30;;;21.10;99.90;;;;;;5073510;28;20735;-62
2021/09/13 13:13:16;;;;;;;6.87;4.77;;;21.20;99.90;;;;;;5073371;28;20723;-63
2021/09/13 13:15:43;;;;;;;7.50;5.43;;;21.10;99.90;;;;;;5073037;28;20709;-59